Terminal Aerodrome Forecast
Issued by NWS

Home | Current Version | Previous Version | Text Only | Print | Product List | Glossary On
Versions: 1 2 3 4 5 6 7 8 9 10 11 12 13 14 15 16 17
989
FTUS42 KFFC 241121
TAFPDK
TAF
KPDK 241121Z 2412/2512 03006KT P6SM FEW080
     FM241600 33005KT P6SM SKC
     FM241800 28005KT P6SM FEW050
     FM250000 24004KT P6SM FEW250=

USA.gov is the U.S. government's official web portal to all federal, state and local government web resources and services.